createdAt,value
2018-06-20T00:00:28.779Z,20.43
2018-06-20T00:05:31.894Z,18.90
2018-06-20T00:10:34.945Z,19.63
2018-06-20T00:15:38.005Z,19.80
2018-06-20T00:20:41.056Z,21.10
2018-06-20T00:25:44.096Z,21.77
2018-06-20T00:30:47.137Z,22.67
2018-06-20T00:35:50.176Z,21.20
2018-06-20T00:40:53.233Z,22.13
2018-06-20T00:45:56.272Z,21.90
2018-06-20T00:50:59.313Z,22.10
2018-06-20T00:56:18.328Z,21.70
2018-06-20T01:01:22.220Z,22.30
2018-06-20T01:06:25.252Z,21.87
2018-06-20T01:11:28.386Z,21.90
2018-06-20T01:16:31.429Z,22.37
2018-06-20T01:21:34.464Z,24.57
2018-06-20T01:26:37.508Z,21.33
2018-06-20T01:31:40.612Z,22.23
2018-06-20T01:36:43.652Z,20.77
2018-06-20T01:41:46.727Z,23.17
2018-06-20T01:46:56.930Z,23.67
2018-06-20T01:51:59.993Z,20.37
2018-06-20T01:57:03.053Z,22.87
2018-06-20T02:02:06.112Z,23.23
2018-06-20T02:07:09.359Z,21.07
2018-06-20T02:12:12.392Z,21.13
2018-06-20T02:17:15.532Z,19.17
2018-06-20T02:22:18.580Z,21.23
2018-06-20T02:27:21.629Z,20.23
2018-06-20T02:32:24.828Z,22.83
2018-06-20T02:37:27.864Z,22.20
2018-06-20T02:42:30.922Z,21.93
2018-06-20T02:47:39.400Z,21.17
2018-06-20T02:52:42.637Z,22.10
2018-06-20T02:57:45.632Z,21.27
2018-06-20T03:02:48.876Z,21.73
2018-06-20T03:07:52.022Z,18.37
2018-06-20T03:12:55.100Z,17.80
2018-06-20T03:17:58.169Z,25.27
2018-06-20T03:23:01.225Z,25.50
2018-06-20T03:28:04.256Z,23.93
2018-06-20T03:33:07.309Z,24.23
2018-06-20T03:38:10.360Z,23.07
2018-06-20T03:43:13.405Z,19.63
2018-06-20T03:48:16.360Z,20.97
2018-06-20T03:53:19.417Z,24.70
2018-06-20T03:58:22.365Z,23.60
2018-06-20T04:03:25.422Z,26.47
2018-06-20T04:08:28.356Z,26.63
2018-06-20T04:13:31.425Z,27.40
2018-06-20T04:18:39.609Z,28.63
2018-06-20T04:23:42.748Z,28.23
2018-06-20T04:28:45.789Z,30.67
2018-06-20T04:33:48.852Z,30.17
2018-06-20T04:38:51.893Z,30.37
2018-06-20T04:43:54.969Z,29.93
2018-06-20T04:48:58.010Z,30.67
2018-06-20T04:54:01.083Z,29.53
2018-06-20T04:59:04.200Z,29.83
2018-06-20T05:04:07.293Z,29.40
2018-06-20T05:09:15.957Z,28.10
2018-06-20T05:14:19.621Z,29.10
2018-06-20T05:19:23.592Z,26.50
2018-06-20T05:24:27.051Z,28.83
2018-06-20T05:29:30.112Z,27.13
2018-06-20T05:34:33.170Z,26.10
2018-06-20T05:39:36.329Z,25.73
2018-06-20T05:44:39.393Z,26.67
2018-06-20T05:49:42.453Z,25.70
2018-06-20T05:54:45.612Z,24.13
2018-06-20T05:59:48.689Z,24.70
2018-06-20T06:04:51.768Z,24.10
2018-06-20T06:09:54.825Z,24.60
2018-06-20T06:14:57.882Z,22.30
2018-06-20T06:20:00.988Z,21.57
2018-06-20T06:25:04.041Z,21.20
2018-06-20T06:30:07.079Z,20.17
2018-06-20T06:35:10.126Z,19.40
2018-06-20T06:40:13.193Z,19.50
2018-06-20T06:45:16.304Z,18.80
2018-06-20T06:50:19.347Z,19.33
2018-06-20T06:55:22.805Z,18.93
2018-06-20T07:00:26.134Z,17.97
2018-06-20T07:05:29.181Z,19.07
2018-06-20T07:10:32.140Z,17.00
2018-06-20T07:15:35.257Z,17.67
2018-06-20T07:20:38.265Z,17.37
2018-06-20T07:25:41.297Z,16.47
2018-06-20T07:30:44.343Z,16.43
2018-06-20T07:35:48.528Z,16.43
2018-06-20T07:40:51.524Z,15.40
2018-06-20T07:45:54.572Z,15.77
2018-06-20T07:50:57.621Z,15.70
2018-06-20T07:56:00.664Z,13.90
2018-06-20T08:01:09.158Z,14.13
2018-06-20T08:06:17.725Z,11.87
2018-06-20T08:11:26.377Z,11.17
2018-06-20T08:16:34.989Z,11.00
2018-06-20T08:21:38.036Z,11.93
2018-06-20T08:26:41.088Z,11.37
2018-06-20T08:31:44.137Z,11.77
2018-06-20T08:36:49.420Z,11.30
2018-06-20T08:41:52.473Z,11.50
2018-06-20T08:46:55.510Z,10.97
2018-06-20T08:51:58.582Z,10.53
2018-06-20T08:57:01.629Z,9.20
2018-06-20T09:02:04.960Z,8.70
2018-06-20T09:07:13.662Z,8.10
2018-06-20T09:12:22.287Z,6.73
2018-06-20T09:17:30.944Z,5.90
2018-06-20T09:22:33.980Z,5.47
2018-06-20T09:27:37.100Z,6.27
2018-06-20T09:32:40.141Z,8.30
2018-06-20T09:37:43.197Z,9.53
2018-06-20T09:42:46.381Z,8.07
2018-06-20T09:47:49.704Z,8.27
2018-06-20T09:52:52.796Z,6.23
2018-06-20T09:57:55.870Z,5.07
2018-06-20T10:03:19.906Z,4.93
2018-06-20T10:08:28.556Z,6.23
2018-06-20T10:13:35.949Z,4.97
2018-06-20T10:18:39.071Z,5.83
2018-06-20T10:23:42.141Z,3.37
2018-06-20T10:28:45.196Z,3.07
2018-06-20T10:33:48.940Z,3.63
2018-06-20T10:38:52.076Z,3.20
2018-06-20T10:43:55.104Z,3.20
2018-06-20T10:48:58.040Z,2.90
2018-06-20T10:54:02.649Z,3.17
2018-06-20T10:59:11.157Z,3.33
2018-06-20T11:04:19.800Z,2.90
2018-06-20T11:09:28.558Z,2.77
2018-06-20T11:14:31.619Z,2.90
2018-06-20T11:19:34.733Z,3.60
2018-06-20T11:24:37.783Z,2.37
2018-06-20T11:29:40.829Z,3.20
2018-06-20T11:34:43.909Z,3.57
2018-06-20T11:39:46.957Z,2.87
2018-06-20T11:44:49.997Z,3.30
2018-06-20T11:49:53.090Z,3.83
2018-06-20T11:55:00.389Z,4.10
2018-06-20T12:00:08.881Z,4.00
2018-06-20T12:05:17.360Z,4.37
2018-06-20T12:10:25.897Z,4.87
2018-06-20T12:15:34.385Z,5.70
2018-06-20T12:20:42.868Z,4.90
2018-06-20T12:25:51.331Z,4.60
2018-06-20T12:30:59.966Z,4.00
2018-06-20T12:36:08.441Z,4.27
2018-06-20T12:41:16.848Z,3.60
2018-06-20T12:46:55.301Z,3.63
2018-06-20T12:51:58.608Z,3.63
2018-06-20T12:57:01.652Z,2.70
2018-06-20T13:02:04.729Z,2.67
2018-06-20T13:07:07.895Z,2.27
2018-06-20T13:12:10.917Z,2.10
2018-06-20T13:17:13.977Z,2.50
2018-06-20T13:22:17.016Z,2.63
2018-06-20T13:27:25.373Z,2.30
2018-06-20T13:32:34.419Z,2.07
2018-06-20T13:37:42.785Z,2.23
2018-06-20T13:43:07.684Z,3.30
2018-06-20T13:48:16.556Z,2.40
2018-06-20T13:53:19.600Z,2.20
2018-06-20T13:58:22.640Z,2.20
2018-06-20T14:03:26.420Z,2.27
2018-06-20T14:08:29.457Z,2.03
2018-06-20T14:13:32.589Z,2.10
2018-06-20T14:18:35.637Z,2.10
2018-06-20T14:23:38.681Z,2.40
2018-06-20T14:28:41.733Z,2.43
2018-06-20T14:33:50.253Z,2.30
2018-06-20T14:38:59.370Z,2.47
2018-06-20T14:44:08.386Z,2.50
2018-06-20T14:49:12.141Z,2.17
2018-06-20T14:54:15.163Z,2.63
2018-06-20T14:59:18.204Z,2.67
2018-06-20T15:04:21.241Z,2.20
2018-06-20T15:09:24.376Z,2.93
2018-06-20T15:14:27.503Z,2.80
2018-06-20T15:19:30.600Z,2.40
2018-06-20T15:24:33.643Z,2.60
2018-06-20T15:29:42.181Z,2.70
2018-06-20T15:34:57.455Z,2.50
2018-06-20T15:40:00.521Z,3.23
2018-06-20T15:45:04.265Z,2.70
2018-06-20T15:50:07.674Z,2.70
2018-06-20T15:55:10.976Z,2.67
2018-06-20T16:00:14.060Z,2.30
2018-06-20T16:05:17.854Z,2.90
2018-06-20T16:10:22.059Z,2.53
2018-06-20T16:15:26.064Z,2.33
2018-06-20T16:20:34.501Z,2.63
2018-06-20T16:25:43.392Z,2.30
2018-06-20T16:30:47.190Z,2.43
2018-06-20T16:35:50.353Z,2.37
2018-06-20T16:40:53.387Z,2.73
2018-06-20T16:45:56.504Z,2.47
2018-06-20T16:50:59.557Z,2.60
2018-06-20T16:56:02.644Z,2.73
2018-06-20T17:01:11.105Z,2.30
2018-06-20T17:06:14.073Z,2.20
2018-06-20T17:11:17.080Z,1.90
2018-06-20T17:16:25.725Z,1.90
2018-06-20T17:22:36.328Z,1.87
2018-06-20T17:27:39.393Z,2.10
2018-06-20T17:32:42.440Z,1.80
2018-06-20T17:37:45.472Z,1.60
2018-06-20T17:42:48.533Z,2.27
2018-06-20T17:47:51.694Z,1.80
2018-06-20T17:53:05.858Z,2.53
2018-06-20T17:58:08.913Z,1.80
2018-06-20T18:03:12.051Z,2.40
2018-06-20T18:08:20.747Z,2.17
2018-06-20T18:13:29.769Z,2.10
2018-06-20T18:18:32.840Z,2.17
2018-06-20T18:23:35.886Z,2.53
2018-06-20T18:28:39.364Z,1.80
2018-06-20T18:33:42.493Z,2.30
2018-06-20T18:38:45.537Z,2.20
2018-06-20T18:43:49.382Z,2.40
2018-06-20T18:48:52.498Z,2.40
2018-06-20T18:53:55.457Z,2.80
2018-06-20T18:59:04.055Z,2.50
2018-06-20T19:04:12.545Z,2.60
2018-06-20T19:09:17.287Z,2.57
2018-06-20T19:14:20.457Z,2.20
2018-06-20T19:19:23.608Z,2.57
2018-06-20T19:24:26.666Z,2.47
2018-06-20T19:34:38.460Z,2.07
2018-06-20T19:39:46.933Z,2.60
2018-06-20T19:44:50.063Z,2.70
2018-06-20T19:49:53.487Z,2.73
2018-06-20T19:54:56.518Z,2.90
2018-06-20T19:59:59.568Z,2.53
2018-06-20T20:05:02.629Z,2.80
2018-06-20T20:10:05.705Z,3.07
2018-06-20T20:15:09.519Z,3.83
2018-06-20T20:20:12.620Z,3.63
2018-06-20T20:25:15.673Z,4.17
2018-06-20T20:30:18.807Z,3.70
2018-06-20T20:35:21.937Z,3.47
2018-06-20T20:40:24.965Z,3.87
2018-06-20T20:45:28.112Z,3.53
2018-06-20T20:50:31.157Z,3.43
2018-06-20T20:55:34.095Z,3.50
2018-06-20T21:00:38.861Z,3.50
2018-06-20T21:05:41.913Z,3.70
2018-06-20T21:10:44.973Z,3.50
2018-06-20T21:15:48.061Z,4.07
2018-06-20T21:20:51.192Z,4.27
2018-06-20T21:25:54.240Z,4.37
2018-06-20T21:30:57.921Z,4.60
2018-06-20T21:36:00.953Z,4.23
2018-06-20T21:41:04.033Z,3.80
2018-06-20T21:46:07.074Z,4.43
2018-06-20T21:51:10.120Z,4.63
2018-06-20T21:56:14.537Z,4.87
2018-06-20T22:01:17.560Z,4.53
2018-06-20T22:06:21.461Z,5.70
2018-06-20T22:11:24.397Z,6.30
2018-06-20T22:16:27.437Z,5.80
2018-06-20T22:21:30.637Z,5.90
2018-06-20T22:26:34.265Z,6.20
2018-06-20T22:31:37.357Z,5.47
2018-06-20T22:36:40.409Z,5.43
2018-06-20T22:41:43.461Z,6.07
2018-06-20T22:46:46.517Z,6.13
2018-06-20T22:51:49.578Z,5.77
2018-06-20T22:56:52.642Z,5.90
2018-06-20T23:01:56.429Z,5.90
2018-06-20T23:06:59.476Z,6.03
2018-06-20T23:12:03.177Z,6.10
2018-06-20T23:17:06.532Z,8.03
2018-06-20T23:22:33.237Z,7.07
2018-06-20T23:27:36.269Z,7.30
2018-06-20T23:32:39.128Z,6.83
2018-06-20T23:43:39.635Z,6.60
2018-06-20T23:48:42.912Z,7.90
2018-06-20T23:53:46.027Z,7.73
2018-06-20T23:58:49.085Z,7.27
